createdAt,value
2019-03-03T00:00:35.287Z,82.66
2019-03-03T00:01:20.182Z,82.39
2019-03-03T00:02:20.786Z,82.45
2019-03-03T00:03:20.111Z,82.76
2019-03-03T00:04:20.084Z,82.25
2019-03-03T00:05:20.073Z,82.45
2019-03-03T00:06:20.799Z,82.56
2019-03-03T00:07:19.992Z,82.25
2019-03-03T00:08:19.955Z,82.29
2019-03-03T00:09:19.917Z,82.25
2019-03-03T00:10:19.905Z,82.25
2019-03-03T00:11:19.850Z,82.45
2019-03-03T00:12:19.818Z,82.25
2019-03-03T00:13:19.790Z,82.25
2019-03-03T00:14:19.767Z,82.66
2019-03-03T00:15:19.727Z,82.25
2019-03-03T00:16:19.723Z,82.25
2019-03-03T00:17:19.662Z,82.35
2019-03-03T00:18:20.286Z,82.35
2019-03-03T00:19:20.685Z,82.42
2019-03-03T00:20:19.564Z,82.66
2019-03-03T00:21:19.564Z,82.66
2019-03-03T00:22:20.286Z,82.52
2019-03-03T00:23:19.476Z,82.62
2019-03-03T00:24:19.431Z,82.56
2019-03-03T00:25:19.398Z,82.45
2019-03-03T00:26:19.415Z,82.21
2019-03-03T00:27:19.379Z,82.35
2019-03-03T00:28:19.324Z,82.76
2019-03-03T00:29:19.262Z,82.21
2019-03-03T00:30:19.235Z,82.66
2019-03-03T00:31:19.230Z,83.07
2019-03-03T00:32:19.178Z,83.04
2019-03-03T00:33:19.138Z,82.62
2019-03-03T00:34:19.106Z,82.52
2019-03-03T00:35:19.074Z,82.62
2019-03-03T00:36:19.084Z,82.21
2019-03-03T00:37:19.786Z,82.73
2019-03-03T00:38:18.972Z,82.73
2019-03-03T00:39:18.969Z,82.73
2019-03-03T00:40:18.912Z,82.62
2019-03-03T00:41:18.919Z,82.83
2019-03-03T00:42:18.850Z,82.73
2019-03-03T00:43:19.795Z,83.00
2019-03-03T00:44:18.792Z,83.51
2019-03-03T00:45:18.754Z,83.14
2019-03-03T00:46:18.764Z,83.55
2019-03-03T00:47:18.698Z,84.07
2019-03-03T00:48:18.651Z,84.07
2019-03-03T00:49:18.655Z,85.10
2019-03-03T00:50:18.590Z,85.10
2019-03-03T00:51:18.580Z,85.00
2019-03-03T00:52:18.525Z,85.10
2019-03-03T00:53:19.289Z,84.96
2019-03-03T00:54:18.464Z,84.96
2019-03-03T00:55:18.431Z,84.89
2019-03-03T00:56:18.415Z,85.00
2019-03-03T00:57:18.385Z,84.86
2019-03-03T00:58:18.342Z,84.89
2019-03-03T00:59:18.303Z,85.31
2019-03-03T01:00:18.304Z,85.21
2019-03-03T01:01:18.844Z,85.10
2019-03-03T01:02:18.246Z,85.27
2019-03-03T01:03:18.714Z,85.31
2019-03-03T01:04:21.691Z,85.47
2019-03-03T01:05:18.792Z,85.17
2019-03-03T01:06:18.231Z,85.31
2019-03-03T01:07:18.041Z,85.37
2019-03-03T01:08:18.008Z,85.27
2019-03-03T01:09:17.972Z,84.96
2019-03-03T01:10:17.943Z,85.47
2019-03-03T01:11:17.925Z,85.58
2019-03-03T01:12:17.900Z,85.47
2019-03-03T01:13:17.851Z,84.96
2019-03-03T01:14:17.817Z,85.37
2019-03-03T01:15:17.874Z,85.17
2019-03-03T01:16:17.758Z,85.27
2019-03-03T01:17:17.761Z,84.96
2019-03-03T01:18:18.306Z,85.37
2019-03-03T01:19:17.654Z,85.37
2019-03-03T01:20:17.621Z,85.47
2019-03-03T01:21:17.603Z,85.17
2019-03-03T01:22:17.587Z,85.47
2019-03-03T01:23:18.355Z,84.96
2019-03-03T01:24:18.295Z,85.44
2019-03-03T01:25:17.461Z,86.10
2019-03-03T01:26:18.393Z,86.20
2019-03-03T01:27:17.425Z,87.34
2019-03-03T01:28:17.359Z,86.71
2019-03-03T01:29:17.334Z,87.65
2019-03-03T01:30:17.304Z,87.23
2019-03-03T01:31:17.269Z,87.95
2019-03-03T01:32:17.269Z,87.60
2019-03-03T01:33:17.215Z,87.40
2019-03-03T01:34:17.801Z,88.06
2019-03-03T01:35:17.148Z,87.95
2019-03-03T01:36:17.104Z,88.47
2019-03-03T01:37:17.107Z,88.68
2019-03-03T01:38:17.059Z,88.78
2019-03-03T01:39:17.009Z,88.89
2019-03-03T01:40:16.980Z,89.61
2019-03-03T01:41:16.943Z,89.29
2019-03-03T01:42:16.926Z,89.81
2019-03-03T01:43:16.943Z,90.02
2019-03-03T01:44:16.853Z,89.71
2019-03-03T01:45:16.817Z,90.12
2019-03-03T01:46:16.783Z,89.81
2019-03-03T01:47:16.748Z,89.71
2019-03-03T01:48:16.749Z,89.71
2019-03-03T01:49:16.725Z,89.92
2019-03-03T01:50:16.658Z,90.02
2019-03-03T01:51:16.629Z,90.02
2019-03-03T01:52:16.594Z,90.02
2019-03-03T01:53:16.596Z,90.02
2019-03-03T01:54:16.531Z,91.01
2019-03-03T01:55:16.507Z,91.01
2019-03-03T01:56:16.461Z,90.43
2019-03-03T01:57:16.440Z,90.49
2019-03-03T01:58:16.437Z,90.70
2019-03-03T01:59:16.369Z,91.11
2019-03-03T02:00:16.341Z,91.11
2019-03-03T02:01:16.301Z,90.59
2019-03-03T02:02:16.271Z,91.22
2019-03-03T02:03:16.259Z,90.95
2019-03-03T02:04:16.797Z,90.70
2019-03-03T02:05:16.168Z,91.16
2019-03-03T02:06:16.148Z,90.84
2019-03-03T02:07:16.124Z,90.95
2019-03-03T02:08:16.105Z,90.53
2019-03-03T02:09:16.046Z,90.59
2019-03-03T02:10:16.012Z,90.70
2019-03-03T02:11:15.982Z,90.59
2019-03-03T02:12:15.944Z,91.11
2019-03-03T02:13:15.938Z,90.91
2019-03-03T02:14:15.878Z,90.70
2019-03-03T02:15:15.849Z,91.22
2019-03-03T02:16:15.814Z,91.11
2019-03-03T02:17:15.791Z,91.11
2019-03-03T02:18:15.803Z,91.94
2019-03-03T02:19:15.772Z,92.04
2019-03-03T02:20:15.686Z,91.94
2019-03-03T02:21:15.660Z,92.66
2019-03-03T02:22:15.633Z,92.04
2019-03-03T02:23:15.594Z,92.25
2019-03-03T02:24:15.591Z,92.35
2019-03-03T02:25:15.539Z,92.46
2019-03-03T02:26:15.499Z,92.55
2019-03-03T02:27:15.467Z,92.76
2019-03-03T02:28:15.429Z,92.97
2019-03-03T02:29:15.517Z,93.18
2019-03-03T02:30:15.393Z,92.97
2019-03-03T02:31:15.353Z,92.76
2019-03-03T02:32:15.326Z,93.69
2019-03-03T02:33:15.276Z,93.38
2019-03-03T02:34:16.216Z,93.73
2019-03-03T02:35:15.212Z,94.00
2019-03-03T02:36:15.203Z,93.90
2019-03-03T02:37:15.142Z,93.79
2019-03-03T02:38:15.119Z,93.49
2019-03-03T02:39:15.339Z,93.79
2019-03-03T02:40:15.047Z,93.22
2019-03-03T02:41:15.019Z,93.73
2019-03-03T02:42:14.991Z,93.69
2019-03-03T02:43:14.967Z,93.49
2019-03-03T02:44:14.950Z,94.00
2019-03-03T02:45:15.810Z,93.90
2019-03-03T02:46:14.864Z,94.10
2019-03-03T02:47:15.805Z,94.21
2019-03-03T02:48:14.788Z,94.00
2019-03-03T02:49:14.795Z,94.00
2019-03-03T02:50:14.734Z,93.79
2019-03-03T02:51:15.318Z,93.79
2019-03-03T02:52:14.661Z,93.90
2019-03-03T02:53:14.632Z,94.21
2019-03-03T02:54:14.627Z,93.69
2019-03-03T02:55:14.572Z,93.59
2019-03-03T02:56:15.311Z,93.59
2019-03-03T02:57:14.502Z,93.69
2019-03-03T02:58:15.309Z,93.69
2019-03-03T02:59:14.463Z,93.69
2019-03-03T03:00:14.409Z,93.69
2019-03-03T03:01:14.380Z,93.69
2019-03-03T03:02:14.340Z,93.59
2019-03-03T03:03:14.308Z,94.00
2019-03-03T03:04:14.317Z,93.69
2019-03-03T03:05:14.245Z,93.85
2019-03-03T03:06:14.212Z,93.54
2019-03-03T03:07:14.175Z,93.69
2019-03-03T03:08:14.154Z,93.85
2019-03-03T03:09:14.114Z,93.65
2019-03-03T03:10:14.131Z,93.65
2019-03-03T03:11:14.365Z,93.65
2019-03-03T03:12:14.028Z,93.65
2019-03-03T03:13:15.709Z,93.65
2019-03-03T03:14:14.009Z,93.75
2019-03-03T03:15:14.809Z,93.34
2019-03-03T03:16:13.918Z,93.13
2019-03-03T03:17:13.863Z,93.24
2019-03-03T03:18:14.806Z,93.24
2019-03-03T03:19:14.708Z,93.49
2019-03-03T03:20:13.811Z,93.34
2019-03-03T03:21:13.747Z,92.72
2019-03-03T03:22:13.700Z,92.82
2019-03-03T03:23:14.307Z,92.82
2019-03-03T03:24:13.631Z,92.97
2019-03-03T03:25:13.625Z,93.24
2019-03-03T03:26:13.571Z,93.07
2019-03-03T03:27:13.543Z,93.28
2019-03-03T03:28:13.503Z,93.38
2019-03-03T03:29:14.311Z,92.93
2019-03-03T03:30:13.849Z,93.28
2019-03-03T03:31:13.416Z,93.13
2019-03-03T03:32:13.382Z,93.18
2019-03-03T03:33:13.349Z,93.38
2019-03-03T03:34:13.313Z,93.28
2019-03-03T03:35:13.319Z,92.76
2019-03-03T03:36:13.251Z,93.07
2019-03-03T03:37:13.220Z,93.01
2019-03-03T03:38:13.187Z,93.49
2019-03-03T03:39:13.194Z,93.90
2019-03-03T03:40:13.119Z,93.28
2019-03-03T03:41:13.110Z,93.69
2019-03-03T03:42:13.061Z,94.10
2019-03-03T03:43:13.813Z,93.69
2019-03-03T03:44:13.000Z,94.10
2019-03-03T03:45:12.960Z,93.18
2019-03-03T03:46:12.952Z,93.59
2019-03-03T03:47:13.811Z,94.00
2019-03-03T03:48:12.895Z,92.97
2019-03-03T03:49:12.837Z,93.59
2019-03-03T03:50:12.809Z,93.28
2019-03-03T03:51:12.798Z,93.03
2019-03-03T03:52:12.739Z,93.34
2019-03-03T03:53:12.708Z,93.03
2019-03-03T03:54:12.670Z,92.93
2019-03-03T03:55:13.312Z,92.82
2019-03-03T03:56:12.847Z,92.93
2019-03-03T03:57:13.316Z,92.31
2019-03-03T03:58:12.550Z,92.41
2019-03-03T03:59:13.311Z,92.10
2019-03-03T04:00:12.474Z,91.75
2019-03-03T04:01:12.483Z,91.75
2019-03-03T04:02:12.423Z,91.85
2019-03-03T04:03:12.386Z,91.03
2019-03-03T04:04:12.350Z,91.13
2019-03-03T04:05:12.320Z,91.03
2019-03-03T04:06:12.338Z,91.03
2019-03-03T04:07:12.263Z,91.09
2019-03-03T04:08:12.222Z,90.92
2019-03-03T04:09:12.233Z,91.09
2019-03-03T04:10:12.155Z,90.99
2019-03-03T04:11:12.127Z,91.09
2019-03-03T04:12:12.094Z,91.19
2019-03-03T04:13:12.092Z,90.67
2019-03-03T04:14:12.034Z,90.78
2019-03-03T04:15:14.720Z,90.99
2019-03-03T04:16:11.968Z,90.99
2019-03-03T04:17:11.967Z,90.47
2019-03-03T04:18:11.917Z,90.37
2019-03-03T04:19:11.883Z,90.99
2019-03-03T04:20:11.842Z,90.16
2019-03-03T04:21:12.314Z,90.26
2019-03-03T04:22:11.803Z,90.16
2019-03-03T04:23:11.747Z,89.75
2019-03-03T04:24:11.712Z,89.65
2019-03-03T04:25:11.681Z,89.54
2019-03-03T04:26:11.651Z,89.81
2019-03-03T04:27:11.641Z,89.50
2019-03-03T04:28:11.594Z,89.34
2019-03-03T04:29:11.551Z,89.09
2019-03-03T04:30:11.528Z,89.40
2019-03-03T04:31:11.504Z,88.78
2019-03-03T04:32:11.488Z,88.78
2019-03-03T04:33:11.426Z,88.47
2019-03-03T04:34:11.435Z,88.57
2019-03-03T04:35:21.827Z,88.47
2019-03-03T04:36:11.345Z,88.06
2019-03-03T04:37:11.340Z,88.06
2019-03-03T04:38:11.266Z,88.17
2019-03-03T04:39:11.235Z,88.12
2019-03-03T04:40:11.199Z,88.02
2019-03-03T04:41:11.837Z,88.06
2019-03-03T04:42:11.836Z,88.02
2019-03-03T04:43:11.179Z,88.12
2019-03-03T04:44:11.082Z,87.92
2019-03-03T04:45:11.050Z,88.12
2019-03-03T04:46:11.019Z,88.02
2019-03-03T04:47:10.987Z,87.60
2019-03-03T04:48:10.980Z,88.12
2019-03-03T04:49:11.830Z,87.60
2019-03-03T04:50:10.896Z,87.60
2019-03-03T04:51:11.839Z,87.71
2019-03-03T04:52:10.824Z,87.81
2019-03-03T04:53:10.825Z,87.92
2019-03-03T04:54:11.338Z,87.30
2019-03-03T04:55:10.731Z,87.71
2019-03-03T04:56:10.697Z,87.40
2019-03-03T04:57:10.722Z,87.40
2019-03-03T04:58:10.869Z,87.19
2019-03-03T04:59:10.602Z,87.19
2019-03-03T05:00:10.574Z,87.60
2019-03-03T05:01:10.538Z,87.15
2019-03-03T05:02:11.339Z,87.81
2019-03-03T05:03:10.658Z,87.19
2019-03-03T05:04:10.507Z,87.30
2019-03-03T05:05:10.418Z,87.92
2019-03-03T05:06:17.246Z,87.87
2019-03-03T05:07:10.356Z,87.81
2019-03-03T05:08:10.333Z,88.02
2019-03-03T05:09:10.369Z,87.81
2019-03-03T05:10:10.264Z,88.23
2019-03-03T05:11:10.253Z,88.02
2019-03-03T05:12:10.203Z,88.02
2019-03-03T05:13:10.164Z,88.12
2019-03-03T05:14:10.173Z,88.02
2019-03-03T05:15:10.101Z,87.51
2019-03-03T05:16:10.082Z,87.60
2019-03-03T05:17:10.047Z,87.92
2019-03-03T05:18:10.012Z,87.60
2019-03-03T05:19:10.000Z,87.60
2019-03-03T05:20:09.948Z,87.51
2019-03-03T05:21:09.914Z,88.12
2019-03-03T05:22:09.880Z,88.02
2019-03-03T05:23:09.852Z,87.81
2019-03-03T05:24:09.898Z,88.02
2019-03-03T05:25:10.346Z,88.08
2019-03-03T05:26:09.760Z,88.02
2019-03-03T05:27:09.727Z,87.92
2019-03-03T05:28:10.340Z,87.71
2019-03-03T05:29:09.662Z,88.02
2019-03-03T05:30:09.657Z,87.51
2019-03-03T05:31:10.339Z,87.60
2019-03-03T05:32:09.567Z,87.40
2019-03-03T05:33:09.547Z,87.60
2019-03-03T05:34:09.533Z,88.02
2019-03-03T05:35:09.497Z,87.51
2019-03-03T05:36:09.464Z,87.92
2019-03-03T05:37:09.409Z,88.02
2019-03-03T05:38:09.390Z,87.81
2019-03-03T05:39:09.356Z,87.40
2019-03-03T05:40:09.375Z,87.51
2019-03-03T05:41:09.284Z,88.12
2019-03-03T05:42:09.258Z,87.46
2019-03-03T05:43:09.224Z,87.15
2019-03-03T05:44:09.191Z,87.15
2019-03-03T05:45:09.193Z,87.40
2019-03-03T05:46:09.133Z,87.26
2019-03-03T05:47:09.097Z,87.71
2019-03-03T05:48:09.065Z,87.67
2019-03-03T05:49:09.841Z,87.87
2019-03-03T05:50:09.025Z,87.26
2019-03-03T05:51:08.970Z,86.64
2019-03-03T05:52:08.941Z,87.67
2019-03-03T05:53:09.844Z,86.95
2019-03-03T05:54:09.848Z,87.15
2019-03-03T05:55:08.870Z,87.15
2019-03-03T05:56:08.815Z,87.15
2019-03-03T05:57:08.781Z,86.91
2019-03-03T05:58:08.760Z,87.42
2019-03-03T05:59:08.727Z,87.15
2019-03-03T06:00:08.718Z,87.15
2019-03-03T06:01:08.658Z,86.60
2019-03-03T06:02:08.625Z,86.70
2019-03-03T06:03:08.597Z,86.80
2019-03-03T06:04:08.566Z,86.70
2019-03-03T06:05:08.572Z,87.12
2019-03-03T06:06:09.357Z,87.32
2019-03-03T06:07:08.467Z,86.50
2019-03-03T06:08:08.438Z,86.29
2019-03-03T06:09:08.407Z,86.60
2019-03-03T06:10:09.343Z,86.50
2019-03-03T06:11:08.381Z,86.77
2019-03-03T06:12:08.320Z,86.80
2019-03-03T06:13:08.282Z,86.35
2019-03-03T06:14:08.849Z,86.46
2019-03-03T06:15:08.219Z,86.46
2019-03-03T06:16:08.213Z,85.53
2019-03-03T06:17:08.156Z,86.05
2019-03-03T06:18:08.127Z,85.74
2019-03-03T06:19:08.095Z,85.43
2019-03-03T06:20:08.067Z,85.63
2019-03-03T06:21:08.058Z,85.70
2019-03-03T06:22:08.005Z,85.12
2019-03-03T06:23:08.014Z,84.61
2019-03-03T06:24:07.938Z,84.88
2019-03-03T06:25:07.914Z,84.88
2019-03-03T06:26:07.912Z,84.88
2019-03-03T06:27:07.868Z,84.88
2019-03-03T06:28:07.965Z,84.67
2019-03-03T06:29:07.781Z,84.94
2019-03-03T06:30:07.750Z,84.47
2019-03-03T06:31:07.744Z,84.63
2019-03-03T06:32:07.702Z,84.22
2019-03-03T06:33:09.255Z,84.56
2019-03-03T06:34:07.632Z,84.01
2019-03-03T06:35:07.630Z,83.81
2019-03-03T06:36:07.590Z,83.81
2019-03-03T06:37:07.537Z,83.40
2019-03-03T06:38:07.506Z,83.19
2019-03-03T06:39:07.468Z,83.19
2019-03-03T06:40:07.439Z,83.09
2019-03-03T06:41:07.893Z,82.95
2019-03-03T06:42:07.388Z,82.95
2019-03-03T06:43:07.347Z,82.54
2019-03-03T06:44:07.321Z,82.33
2019-03-03T06:45:07.289Z,82.13
2019-03-03T06:46:07.287Z,81.99
2019-03-03T06:47:07.226Z,81.88
2019-03-03T06:48:07.195Z,81.78
2019-03-03T06:49:07.175Z,81.78
2019-03-03T06:50:07.142Z,80.76
2019-03-03T06:51:07.396Z,80.00
2019-03-03T06:52:07.068Z,80.51
2019-03-03T06:53:07.047Z,79.90
2019-03-03T06:54:07.853Z,79.90
2019-03-03T06:55:06.978Z,79.59
2019-03-03T06:56:06.998Z,79.66
2019-03-03T06:57:06.918Z,79.24
2019-03-03T06:58:07.853Z,79.14
2019-03-03T06:59:07.352Z,79.28
2019-03-03T07:00:07.353Z,79.08
2019-03-03T07:01:07.359Z,79.28
2019-03-03T07:02:06.789Z,78.97
2019-03-03T07:03:06.743Z,79.38
2019-03-03T07:04:06.703Z,79.49
2019-03-03T07:05:06.713Z,78.67
2019-03-03T07:06:06.649Z,79.08
2019-03-03T07:07:06.647Z,78.87
2019-03-03T07:08:06.596Z,78.97
2019-03-03T07:09:06.564Z,78.74
2019-03-03T07:10:06.551Z,78.74
2019-03-03T07:11:06.510Z,78.42
2019-03-03T07:12:06.482Z,78.12
2019-03-03T07:13:06.430Z,78.22
2019-03-03T07:14:06.398Z,77.71
2019-03-03T07:15:06.380Z,77.81
2019-03-03T07:16:06.349Z,77.61
2019-03-03T07:17:06.340Z,77.67
2019-03-03T07:18:06.312Z,77.36
2019-03-03T07:19:06.765Z,77.36
2019-03-03T07:20:09.766Z,76.95
2019-03-03T07:21:07.422Z,76.65
2019-03-03T07:22:07.435Z,76.44
2019-03-03T07:23:08.264Z,76.24
2019-03-03T07:24:06.911Z,76.24
2019-03-03T07:25:06.227Z,76.34
2019-03-03T07:26:06.052Z,76.03
2019-03-03T07:27:06.036Z,76.10
2019-03-03T07:28:05.985Z,75.48
2019-03-03T07:29:08.764Z,75.93
2019-03-03T07:30:07.384Z,75.89
2019-03-03T07:31:07.480Z,75.18
2019-03-03T07:32:06.998Z,75.28
2019-03-03T07:33:05.874Z,75.59
2019-03-03T07:34:05.800Z,75.48
2019-03-03T07:35:05.771Z,75.18
2019-03-03T07:36:06.406Z,74.77
2019-03-03T07:37:07.647Z,74.15
2019-03-03T07:38:06.411Z,74.02
2019-03-03T07:39:05.742Z,74.22
2019-03-03T07:40:05.626Z,74.02
2019-03-03T07:41:07.267Z,73.81
2019-03-03T07:42:09.803Z,73.10
2019-03-03T07:43:05.532Z,73.47
2019-03-03T07:44:07.325Z,72.75
2019-03-03T07:45:05.471Z,72.96
2019-03-03T07:46:09.268Z,72.14
2019-03-03T07:47:07.902Z,72.04
2019-03-03T07:48:06.457Z,72.86
2019-03-03T07:49:07.319Z,73.06
2019-03-03T07:50:06.007Z,72.75
2019-03-03T07:51:08.913Z,72.45
2019-03-03T07:52:06.921Z,72.24
2019-03-03T07:53:05.268Z,72.14
2019-03-03T07:54:05.210Z,71.70
2019-03-03T07:55:05.179Z,70.88
2019-03-03T07:56:05.147Z,70.98
2019-03-03T07:57:05.134Z,70.98
2019-03-03T07:58:10.272Z,71.15
2019-03-03T07:59:05.105Z,70.54
2019-03-03T08:00:05.837Z,70.23
2019-03-03T08:01:05.007Z,69.93
2019-03-03T08:02:05.040Z,70.23
2019-03-03T08:03:06.871Z,69.59
2019-03-03T08:04:05.822Z,69.89
2019-03-03T08:05:05.885Z,69.69
2019-03-03T08:06:06.861Z,68.66
2019-03-03T08:07:04.843Z,68.66
2019-03-03T08:08:04.937Z,68.36
2019-03-03T08:09:04.773Z,68.87
2019-03-03T08:10:05.348Z,68.97
2019-03-03T08:11:04.717Z,68.87
2019-03-03T08:12:04.777Z,68.77
2019-03-03T08:13:09.167Z,68.74
2019-03-03T08:14:04.657Z,68.53
2019-03-03T08:15:04.614Z,68.23
2019-03-03T08:16:04.564Z,67.89
2019-03-03T08:17:04.597Z,67.68
2019-03-03T08:18:04.534Z,67.89
2019-03-03T08:19:04.481Z,66.83
2019-03-03T08:20:05.366Z,66.42
2019-03-03T08:21:05.323Z,65.68
2019-03-03T08:22:04.403Z,65.86
2019-03-03T08:23:07.275Z,65.58
2019-03-03T08:24:05.910Z,65.48
2019-03-03T08:25:05.283Z,65.48
2019-03-03T08:26:05.337Z,66.12
2019-03-03T08:27:04.252Z,65.81
2019-03-03T08:28:05.784Z,65.92
2019-03-03T08:29:04.198Z,66.12
2019-03-03T08:30:06.327Z,65.71
2019-03-03T08:31:04.156Z,64.90
2019-03-03T08:32:04.118Z,63.96
2019-03-03T08:33:04.127Z,63.96
2019-03-03T08:34:04.058Z,63.89
2019-03-03T08:35:04.039Z,63.89
2019-03-03T08:36:05.445Z,64.84
2019-03-03T08:37:07.278Z,65.37
2019-03-03T08:38:04.064Z,65.48
2019-03-03T08:39:04.893Z,66.12
2019-03-03T08:40:04.778Z,67.04
2019-03-03T08:41:03.859Z,67.38
2019-03-03T08:42:03.829Z,67.89
2019-03-03T08:43:04.240Z,68.26
2019-03-03T08:44:03.776Z,67.76
2019-03-03T08:45:03.751Z,68.06
2019-03-03T08:46:03.716Z,67.65
2019-03-03T08:47:03.694Z,67.62
2019-03-03T08:48:03.675Z,67.11
2019-03-03T08:49:03.659Z,66.30
2019-03-03T08:50:03.612Z,66.91
2019-03-03T08:51:03.577Z,66.09
2019-03-03T08:52:03.554Z,67.32
2019-03-03T08:53:03.527Z,66.50
2019-03-03T08:54:03.515Z,66.39
2019-03-03T08:55:03.464Z,66.83
2019-03-03T08:56:03.453Z,66.53
2019-03-03T08:57:03.409Z,66.02
2019-03-03T08:58:03.382Z,65.92
2019-03-03T08:59:03.376Z,66.42
2019-03-03T09:00:03.330Z,66.56
2019-03-03T09:01:03.295Z,66.63
2019-03-03T09:02:03.262Z,65.81
2019-03-03T09:03:03.235Z,65.92
2019-03-03T09:04:03.266Z,65.81
2019-03-03T09:05:03.179Z,65.92
2019-03-03T09:06:03.152Z,66.09
2019-03-03T09:07:03.124Z,66.12
2019-03-03T09:08:03.094Z,65.81
2019-03-03T09:09:03.116Z,66.22
2019-03-03T09:10:03.043Z,66.22
2019-03-03T09:11:03.444Z,65.81
2019-03-03T09:12:02.998Z,66.12
2019-03-03T09:13:02.967Z,66.22
2019-03-03T09:14:02.930Z,65.81
2019-03-03T09:15:02.905Z,66.53
2019-03-03T09:16:02.894Z,65.92
2019-03-03T09:17:02.843Z,65.78
2019-03-03T09:18:02.818Z,65.37
2019-03-03T09:19:02.813Z,65.48
2019-03-03T09:20:02.759Z,65.04
2019-03-03T09:21:02.733Z,64.63
2019-03-03T09:22:04.700Z,64.84
2019-03-03T09:23:02.669Z,63.68
2019-03-03T09:24:02.642Z,64.02
2019-03-03T09:25:02.692Z,63.68
2019-03-03T09:26:02.637Z,64.09
2019-03-03T09:27:02.575Z,64.02
2019-03-03T09:28:02.543Z,64.32
2019-03-03T09:29:02.502Z,64.63
2019-03-03T09:30:02.505Z,64.12
2019-03-03T09:31:02.458Z,63.92
2019-03-03T09:32:02.482Z,64.29
2019-03-03T09:33:02.393Z,64.09
2019-03-03T09:34:02.372Z,63.89
2019-03-03T09:35:02.363Z,63.79
2019-03-03T09:36:02.347Z,63.79
2019-03-03T09:37:08.790Z,64.02
2019-03-03T09:38:02.252Z,63.68
2019-03-03T09:39:02.222Z,63.48
2019-03-03T09:40:09.076Z,63.68
2019-03-03T09:41:02.169Z,64.06
2019-03-03T09:42:02.137Z,64.20
2019-03-03T09:43:02.895Z,64.78
2019-03-03T09:44:02.088Z,64.57
2019-03-03T09:45:02.094Z,65.11
2019-03-03T09:46:02.029Z,65.42
2019-03-03T09:47:02.053Z,65.83
2019-03-03T09:48:01.989Z,66.16
2019-03-03T09:49:01.945Z,65.52
2019-03-03T09:50:01.925Z,65.45
2019-03-03T09:51:01.916Z,65.52
2019-03-03T09:52:01.963Z,65.52
2019-03-03T09:53:01.836Z,65.52
2019-03-03T09:54:01.873Z,66.06
2019-03-03T09:55:01.777Z,65.55
2019-03-03T09:56:01.774Z,65.65
2019-03-03T09:57:01.726Z,65.92
2019-03-03T09:58:01.709Z,66.13
2019-03-03T09:59:01.682Z,66.16
2019-03-03T10:00:01.639Z,65.95
2019-03-03T10:01:01.640Z,66.27
2019-03-03T10:02:01.593Z,65.25
2019-03-03T10:03:01.554Z,65.62
2019-03-03T10:04:01.531Z,65.52
2019-03-03T10:05:01.508Z,65.52
2019-03-03T10:06:01.550Z,65.31
2019-03-03T10:07:01.442Z,64.90
2019-03-03T10:08:01.453Z,63.58
2019-03-03T10:09:01.385Z,63.65
2019-03-03T10:10:01.936Z,63.56
2019-03-03T10:11:01.345Z,64.57
2019-03-03T10:12:01.330Z,63.96
2019-03-03T10:13:01.281Z,64.29
2019-03-03T10:14:01.259Z,64.73
2019-03-03T10:15:01.913Z,65.04
2019-03-03T10:16:01.900Z,65.28
2019-03-03T10:17:01.440Z,65.45
2019-03-03T10:18:03.800Z,65.37
2019-03-03T10:19:07.205Z,65.04
2019-03-03T10:20:01.096Z,65.17
2019-03-03T10:21:03.113Z,65.07
2019-03-03T10:22:01.069Z,65.58
2019-03-03T10:23:01.007Z,65.78
2019-03-03T10:24:00.973Z,66.19
2019-03-03T10:25:00.945Z,65.37
2019-03-03T10:26:00.920Z,65.48
2019-03-03T10:27:00.920Z,65.68
2019-03-03T10:28:01.402Z,66.09
2019-03-03T10:29:00.833Z,66.19
2019-03-03T10:30:00.807Z,66.09
2019-03-03T10:31:00.779Z,65.99
2019-03-03T10:32:00.780Z,65.58
2019-03-03T10:33:00.729Z,66.19
2019-03-03T10:34:01.398Z,65.58
2019-03-03T10:35:00.666Z,66.30
2019-03-03T10:36:00.639Z,66.50
2019-03-03T10:37:09.455Z,67.41
2019-03-03T10:38:00.580Z,67.35
2019-03-03T10:39:00.553Z,67.55
2019-03-03T10:40:00.532Z,67.85
2019-03-03T10:41:00.504Z,67.45
2019-03-03T10:42:00.513Z,67.35
2019-03-03T10:43:00.444Z,67.96
2019-03-03T10:44:00.412Z,67.35
2019-03-03T10:45:00.384Z,67.24
2019-03-03T10:46:00.366Z,67.45
2019-03-03T10:47:00.351Z,67.45
2019-03-03T10:48:00.324Z,66.80
2019-03-03T10:49:00.267Z,66.30
2019-03-03T10:50:00.311Z,65.75
2019-03-03T10:51:00.213Z,65.72
2019-03-03T10:52:00.202Z,65.42
2019-03-03T10:53:00.179Z,65.22
2019-03-03T10:54:00.128Z,65.08
2019-03-03T10:55:00.946Z,64.57
2019-03-03T10:56:00.068Z,64.87
2019-03-03T10:57:00.046Z,64.87
2019-03-03T10:58:00.041Z,64.57
2019-03-03T10:58:59.986Z,64.54
2019-03-03T11:00:02.833Z,63.65
2019-03-03T11:00:59.933Z,64.47
2019-03-03T11:01:59.904Z,64.78
2019-03-03T11:02:59.896Z,65.08
2019-03-03T11:03:59.847Z,64.78
2019-03-03T11:04:59.821Z,64.37
2019-03-03T11:05:59.793Z,63.56
2019-03-03T11:06:59.765Z,64.47
2019-03-03T11:07:59.760Z,65.08
2019-03-03T11:08:59.710Z,64.67
2019-03-03T11:09:59.681Z,64.50
2019-03-03T11:11:00.431Z,65.42
2019-03-03T11:11:59.651Z,65.28
2019-03-03T11:12:59.627Z,64.67
2019-03-03T11:13:59.703Z,64.26
2019-03-03T11:15:00.431Z,63.53
2019-03-03T11:15:59.525Z,64.98
2019-03-03T11:16:59.491Z,63.86
2019-03-03T11:17:59.491Z,65.08
2019-03-03T11:18:59.434Z,64.95
2019-03-03T11:19:59.410Z,64.75
2019-03-03T11:20:59.936Z,63.62
2019-03-03T11:21:59.354Z,63.53
2019-03-03T11:22:59.333Z,63.93
2019-03-03T11:23:59.492Z,64.44
2019-03-03T11:24:59.934Z,64.54
2019-03-03T11:25:59.248Z,64.98
2019-03-03T11:26:59.224Z,65.16
2019-03-03T11:27:59.187Z,64.87
2019-03-03T11:28:59.192Z,65.25
2019-03-03T11:29:59.139Z,65.49
2019-03-03T11:30:59.113Z,65.16
2019-03-03T11:31:59.088Z,65.80
2019-03-03T11:32:59.062Z,66.27
2019-03-03T11:33:59.109Z,65.56
2019-03-03T11:34:59.003Z,65.59
2019-03-03T11:35:58.968Z,65.77
2019-03-03T11:36:58.942Z,66.20
2019-03-03T11:37:58.920Z,66.91
2019-03-03T11:38:58.918Z,67.19
2019-03-03T11:39:58.867Z,67.32
2019-03-03T11:40:58.839Z,67.43
2019-03-03T11:41:58.807Z,68.44
2019-03-03T11:42:58.783Z,68.54
2019-03-03T11:43:58.774Z,68.95
2019-03-03T11:44:58.721Z,69.67
2019-03-03T11:45:58.696Z,69.39
2019-03-03T11:46:58.675Z,70.44
2019-03-03T11:48:04.054Z,70.75
2019-03-03T11:48:58.647Z,70.95
2019-03-03T11:49:58.588Z,71.80
2019-03-03T11:50:58.588Z,72.31
2019-03-03T11:51:58.538Z,71.70
2019-03-03T11:52:58.511Z,71.70
2019-03-03T11:53:58.517Z,72.31
2019-03-03T11:55:00.880Z,72.82
2019-03-03T11:55:58.939Z,72.72
2019-03-03T11:56:58.945Z,72.82
2019-03-03T11:57:58.946Z,72.82
2019-03-03T11:58:58.367Z,72.62
2019-03-03T11:59:58.311Z,72.62
2019-03-03T12:00:58.280Z,73.54
2019-03-03T12:01:58.254Z,73.74
2019-03-03T12:02:58.942Z,73.30
2019-03-03T12:03:58.476Z,72.62
2019-03-03T12:04:58.946Z,73.74
2019-03-03T12:05:58.945Z,73.33
2019-03-03T12:06:58.952Z,74.15
2019-03-03T12:07:58.093Z,74.18
2019-03-03T12:08:58.060Z,75.20
2019-03-03T12:09:58.949Z,74.49
2019-03-03T12:10:58.005Z,74.59
2019-03-03T12:11:57.974Z,75.82
2019-03-03T12:12:57.950Z,74.55
2019-03-03T12:13:57.916Z,75.37
2019-03-03T12:14:57.979Z,75.13
2019-03-03T12:15:57.859Z,74.52
2019-03-03T12:16:58.446Z,74.32
2019-03-03T12:17:57.810Z,73.91
2019-03-03T12:18:57.788Z,73.97
2019-03-03T12:19:57.776Z,74.38
2019-03-03T12:20:57.725Z,73.57
2019-03-03T12:21:58.446Z,73.77
2019-03-03T12:22:57.674Z,73.94
2019-03-03T12:23:57.639Z,73.54
2019-03-03T12:24:57.633Z,73.84
2019-03-03T12:25:57.588Z,74.35
2019-03-03T12:26:57.554Z,73.13
2019-03-03T12:27:57.532Z,72.62
2019-03-03T12:28:57.506Z,72.65
2019-03-03T12:29:57.503Z,73.47
2019-03-03T12:30:57.446Z,73.57
2019-03-03T12:31:57.945Z,74.38
2019-03-03T12:32:57.392Z,74.08
2019-03-03T12:33:57.363Z,74.49
2019-03-03T12:34:57.368Z,75.10
2019-03-03T12:35:57.312Z,74.38
2019-03-03T12:36:57.284Z,75.60
2019-03-03T12:37:57.263Z,74.38
2019-03-03T12:38:57.948Z,74.35
2019-03-03T12:39:57.225Z,74.45
2019-03-03T12:40:57.180Z,73.74
2019-03-03T12:41:57.150Z,72.52
2019-03-03T12:42:57.952Z,72.31
2019-03-03T12:43:57.102Z,73.33
2019-03-03T12:44:57.949Z,72.52
2019-03-03T12:45:57.071Z,72.48
2019-03-03T12:46:57.012Z,74.15
2019-03-03T12:47:56.990Z,73.30
2019-03-03T12:48:56.956Z,73.40
2019-03-03T12:49:56.931Z,72.48
2019-03-03T12:50:56.928Z,72.48
2019-03-03T12:51:56.875Z,72.58